Main page
METAR-TAF:

METAR-TAF

Airports :

Eastern Oregon Regional Airport

Pendleton, Oregon, United States

latitude: 45-41-54N, longitude: 118-50-03W, elevation: 1492 ft

Current weather observation

The report was made 34 minutes ago, at 20:53 UTC
Wind 7 mph from the North/Northeast with gusts up to 20 mph
Temperature 81°F
Humidity 21%
Pressure 29.96 in. Hg
Visibility: 10 miles
Clear sky

METAR: KPDT 192053Z 02006G17KT 10SM CLR 27/03 A2996 RMK AO2 SLP135 T02670033 58013

Time: 14:27 (21:27 UTC)

Forecast

The report was made 4 hours and 7 minutes ago, at 17:20 UTC
Forecast valid from 19 at 18 UTC to 20 at 18 UTC
Wind 9 mph from the North
Visibility: 6 miles
Clear sky
From 20 at 0500 UTC
Wind 7 mph from the East/Southeast
Visibility: 6 miles
Clear sky

TAF: KPDT 191720Z 1918/2018 36008KT P6SM SKC FM200500 11006KT P6SM SKC

Weather observations and forecasts of more than 4000 airports (METAR and TAF reports).

The available stations are represented by yellow and red dots on the map.

Hover mouse over dot to see the name of the station.

Then click to see weather observations and forecasts.

To change the map : click on the green buttons with a black cross to zoom in, on the green button with a dash to zoom out, or on the green arrows for adjacent maps.


METAR-TAF: